Terminal Aerodrome Forecast
Issued by NWS

Home | Current Version | Previous Version | Graphics & Text | Print | Product List | Glossary On
Versions: 1 2 3 4 5 6 7 8 9 10 11 12 13 14 15
000
FTUS43 KGRB 072038 AAA
TAFAUW
TAF AMD
KAUW 072038Z 0721/0818 27015G25KT 6SM -SN OVC022
      TEMPO 0721/0724 3SM -SHSN BKN018
     FM080000 26016G26KT P6SM -SN OVC020
     FM081300 29013G21KT P6SM -SN OVC016
      TEMPO 0814/0818 3SM -SHSN BKN012 BKN020=

USA.gov is the U.S. government's official web portal to all federal, state and local government web resources and services.